sensor_id;sensor_type;location;lat;lon;timestamp;P1;durP1;ratioP1;P2;durP2;ratioP2
1699;SDS011;847;48.058;7.810;2023-06-14T00:02:15;4.90;;;4.37;;
1699;SDS011;847;48.058;7.810;2023-06-14T00:04:42;6.43;;;5.20;;
1699;SDS011;847;48.058;7.810;2023-06-14T00:07:09;6.67;;;4.77;;
1699;SDS011;847;48.058;7.810;2023-06-14T00:09:40;4.83;;;4.43;;
1699;SDS011;847;48.058;7.810;2023-06-14T00:12:07;5.30;;;4.60;;
1699;SDS011;847;48.058;7.810;2023-06-14T00:14:34;4.77;;;4.40;;
1699;SDS011;847;48.058;7.810;2023-06-14T00:17:01;6.37;;;4.67;;
1699;SDS011;847;48.058;7.810;2023-06-14T00:19:27;6.07;;;4.93;;
1699;SDS011;847;48.058;7.810;2023-06-14T00:21:55;6.60;;;5.10;;
1699;SDS011;847;48.058;7.810;2023-06-14T00:24:22;5.30;;;4.80;;
1699;SDS011;847;48.058;7.810;2023-06-14T00:26:50;6.40;;;4.73;;
1699;SDS011;847;48.058;7.810;2023-06-14T00:29:17;5.97;;;5.00;;
1699;SDS011;847;48.058;7.810;2023-06-14T00:31:44;5.33;;;4.83;;
1699;SDS011;847;48.058;7.810;2023-06-14T00:34:10;5.30;;;4.70;;
1699;SDS011;847;48.058;7.810;2023-06-14T00:36:37;6.63;;;4.63;;
1699;SDS011;847;48.058;7.810;2023-06-14T00:39:04;6.30;;;4.83;;
1699;SDS011;847;48.058;7.810;2023-06-14T00:41:30;7.90;;;5.50;;
1699;SDS011;847;48.058;7.810;2023-06-14T00:43:59;5.80;;;5.00;;
1699;SDS011;847;48.058;7.810;2023-06-14T00:46:25;5.70;;;5.17;;
1699;SDS011;847;48.058;7.810;2023-06-14T00:48:52;5.80;;;5.30;;
1699;SDS011;847;48.058;7.810;2023-06-14T00:51:20;5.73;;;4.80;;
1699;SDS011;847;48.058;7.810;2023-06-14T00:53:47;7.00;;;5.00;;
1699;SDS011;847;48.058;7.810;2023-06-14T00:56:14;5.33;;;4.87;;
1699;SDS011;847;48.058;7.810;2023-06-14T00:58:45;5.07;;;4.57;;
1699;SDS011;847;48.058;7.810;2023-06-14T01:01:14;5.73;;;5.13;;
1699;SDS011;847;48.058;7.810;2023-06-14T01:03:41;4.60;;;4.20;;
1699;SDS011;847;48.058;7.810;2023-06-14T01:06:11;5.40;;;4.90;;
1699;SDS011;847;48.058;7.810;2023-06-14T01:08:53;5.80;;;5.20;;
1699;SDS011;847;48.058;7.810;2023-06-14T01:11:31;6.37;;;4.63;;
1699;SDS011;847;48.058;7.810;2023-06-14T01:14:04;4.70;;;4.30;;
1699;SDS011;847;48.058;7.810;2023-06-14T01:16:34;4.97;;;4.47;;
1699;SDS011;847;48.058;7.810;2023-06-14T01:19:04;4.57;;;4.27;;
1699;SDS011;847;48.058;7.810;2023-06-14T01:21:37;6.70;;;4.17;;
1699;SDS011;847;48.058;7.810;2023-06-14T01:24:08;7.27;;;4.30;;
1699;SDS011;847;48.058;7.810;2023-06-14T01:26:36;4.50;;;4.10;;
1699;SDS011;847;48.058;7.810;2023-06-14T01:29:04;5.13;;;4.20;;
1699;SDS011;847;48.058;7.810;2023-06-14T01:31:32;6.30;;;5.07;;
1699;SDS011;847;48.058;7.810;2023-06-14T01:34:06;5.10;;;4.60;;
1699;SDS011;847;48.058;7.810;2023-06-14T01:36:34;6.77;;;5.13;;
1699;SDS011;847;48.058;7.810;2023-06-14T01:39:02;5.50;;;4.50;;
1699;SDS011;847;48.058;7.810;2023-06-14T01:41:32;4.57;;;4.07;;
1699;SDS011;847;48.058;7.810;2023-06-14T01:44:01;5.97;;;5.03;;
1699;SDS011;847;48.058;7.810;2023-06-14T01:46:29;5.60;;;4.90;;
1699;SDS011;847;48.058;7.810;2023-06-14T01:48:56;9.50;;;5.17;;
1699;SDS011;847;48.058;7.810;2023-06-14T01:51:23;4.93;;;4.07;;
1699;SDS011;847;48.058;7.810;2023-06-14T01:53:50;6.67;;;4.47;;
1699;SDS011;847;48.058;7.810;2023-06-14T01:56:16;6.97;;;4.10;;
1699;SDS011;847;48.058;7.810;2023-06-14T01:58:45;5.83;;;4.90;;
1699;SDS011;847;48.058;7.810;2023-06-14T02:01:11;6.37;;;4.83;;
1699;SDS011;847;48.058;7.810;2023-06-14T02:03:40;6.90;;;4.70;;
1699;SDS011;847;48.058;7.810;2023-06-14T02:06:07;6.20;;;4.57;;
1699;SDS011;847;48.058;7.810;2023-06-14T02:08:35;6.40;;;5.27;;
1699;SDS011;847;48.058;7.810;2023-06-14T02:11:02;7.67;;;5.30;;
1699;SDS011;847;48.058;7.810;2023-06-14T02:13:28;5.93;;;4.80;;
1699;SDS011;847;48.058;7.810;2023-06-14T02:15:57;5.70;;;5.10;;
1699;SDS011;847;48.058;7.810;2023-06-14T02:18:24;5.53;;;4.90;;
1699;SDS011;847;48.058;7.810;2023-06-14T02:20:51;8.43;;;5.50;;
1699;SDS011;847;48.058;7.810;2023-06-14T02:23:18;5.37;;;4.87;;
1699;SDS011;847;48.058;7.810;2023-06-14T02:25:45;6.23;;;4.87;;
1699;SDS011;847;48.058;7.810;2023-06-14T02:28:12;5.60;;;4.70;;
1699;SDS011;847;48.058;7.810;2023-06-14T02:30:38;6.13;;;5.50;;
1699;SDS011;847;48.058;7.810;2023-06-14T02:33:07;4.93;;;4.53;;
1699;SDS011;847;48.058;7.810;2023-06-14T02:35:37;5.70;;;4.43;;
1699;SDS011;847;48.058;7.810;2023-06-14T02:38:03;5.17;;;4.33;;
1699;SDS011;847;48.058;7.810;2023-06-14T02:40:30;5.67;;;5.10;;
1699;SDS011;847;48.058;7.810;2023-06-14T02:42:57;5.53;;;5.03;;
1699;SDS011;847;48.058;7.810;2023-06-14T02:45:23;6.20;;;5.67;;
1699;SDS011;847;48.058;7.810;2023-06-14T02:47:50;5.93;;;5.23;;
1699;SDS011;847;48.058;7.810;2023-06-14T02:50:19;5.40;;;4.90;;
1699;SDS011;847;48.058;7.810;2023-06-14T02:52:46;5.43;;;4.80;;
1699;SDS011;847;48.058;7.810;2023-06-14T02:55:13;5.33;;;4.83;;
1699;SDS011;847;48.058;7.810;2023-06-14T02:57:40;7.70;;;5.17;;
1699;SDS011;847;48.058;7.810;2023-06-14T03:00:07;8.23;;;5.30;;
1699;SDS011;847;48.058;7.810;2023-06-14T03:02:38;6.20;;;4.53;;
1699;SDS011;847;48.058;7.810;2023-06-14T03:05:05;5.77;;;5.23;;
1699;SDS011;847;48.058;7.810;2023-06-14T03:07:34;6.13;;;4.73;;
1699;SDS011;847;48.058;7.810;2023-06-14T03:10:06;6.27;;;5.63;;
1699;SDS011;847;48.058;7.810;2023-06-14T03:12:34;6.33;;;5.03;;
1699;SDS011;847;48.058;7.810;2023-06-14T03:15:01;6.27;;;4.73;;
1699;SDS011;847;48.058;7.810;2023-06-14T03:17:29;5.90;;;5.40;;
1699;SDS011;847;48.058;7.810;2023-06-14T03:19:58;6.20;;;5.23;;
1699;SDS011;847;48.058;7.810;2023-06-14T03:22:25;5.60;;;5.10;;
1699;SDS011;847;48.058;7.810;2023-06-14T03:24:53;7.77;;;5.43;;
1699;SDS011;847;48.058;7.810;2023-06-14T03:27:20;5.70;;;5.20;;
1699;SDS011;847;48.058;7.810;2023-06-14T03:29:46;5.30;;;4.80;;
1699;SDS011;847;48.058;7.810;2023-06-14T03:32:13;6.80;;;5.10;;
1699;SDS011;847;48.058;7.810;2023-06-14T03:34:40;6.37;;;5.47;;
1699;SDS011;847;48.058;7.810;2023-06-14T03:37:07;6.50;;;5.30;;
1699;SDS011;847;48.058;7.810;2023-06-14T03:39:34;5.70;;;4.87;;
1699;SDS011;847;48.058;7.810;2023-06-14T03:42:03;5.80;;;5.30;;
1699;SDS011;847;48.058;7.810;2023-06-14T03:44:30;5.70;;;5.13;;
1699;SDS011;847;48.058;7.810;2023-06-14T03:46:56;7.77;;;5.30;;
1699;SDS011;847;48.058;7.810;2023-06-14T03:49:23;5.27;;;4.77;;
1699;SDS011;847;48.058;7.810;2023-06-14T03:51:50;5.60;;;4.50;;
1699;SDS011;847;48.058;7.810;2023-06-14T03:54:17;5.20;;;4.60;;
1699;SDS011;847;48.058;7.810;2023-06-14T03:56:44;5.90;;;4.13;;
1699;SDS011;847;48.058;7.810;2023-06-14T03:59:13;5.30;;;4.80;;
1699;SDS011;847;48.058;7.810;2023-06-14T04:01:39;6.83;;;4.60;;
1699;SDS011;847;48.058;7.810;2023-06-14T04:04:11;6.03;;;4.70;;
1699;SDS011;847;48.058;7.810;2023-06-14T04:06:39;6.83;;;3.93;;
1699;SDS011;847;48.058;7.810;2023-06-14T04:09:07;5.43;;;4.93;;
1699;SDS011;847;48.058;7.810;2023-06-14T04:11:33;6.13;;;4.20;;
1699;SDS011;847;48.058;7.810;2023-06-14T04:14:01;5.73;;;4.40;;
1699;SDS011;847;48.058;7.810;2023-06-14T04:16:29;5.07;;;4.60;;
1699;SDS011;847;48.058;7.810;2023-06-14T04:18:56;5.50;;;4.60;;
1699;SDS011;847;48.058;7.810;2023-06-14T04:21:23;6.37;;;5.07;;
1699;SDS011;847;48.058;7.810;2023-06-14T04:23:50;5.60;;;5.10;;
1699;SDS011;847;48.058;7.810;2023-06-14T04:26:20;5.07;;;4.57;;
1699;SDS011;847;48.058;7.810;2023-06-14T04:28:48;5.73;;;4.87;;
1699;SDS011;847;48.058;7.810;2023-06-14T04:31:15;5.73;;;4.90;;
1699;SDS011;847;48.058;7.810;2023-06-14T04:33:43;5.47;;;4.70;;
1699;SDS011;847;48.058;7.810;2023-06-14T04:36:11;5.50;;;5.00;;
1699;SDS011;847;48.058;7.810;2023-06-14T04:38:38;5.67;;;4.43;;
1699;SDS011;847;48.058;7.810;2023-06-14T04:41:06;4.90;;;4.43;;
1699;SDS011;847;48.058;7.810;2023-06-14T04:43:36;5.40;;;4.87;;
1699;SDS011;847;48.058;7.810;2023-06-14T04:46:03;5.90;;;4.97;;
1699;SDS011;847;48.058;7.810;2023-06-14T04:48:35;5.17;;;4.67;;
1699;SDS011;847;48.058;7.810;2023-06-14T04:51:07;5.00;;;4.50;;
1699;SDS011;847;48.058;7.810;2023-06-14T04:53:34;7.03;;;4.30;;
1699;SDS011;847;48.058;7.810;2023-06-14T04:56:02;7.37;;;4.93;;
1699;SDS011;847;48.058;7.810;2023-06-14T04:58:29;6.07;;;5.37;;
1699;SDS011;847;48.058;7.810;2023-06-14T05:00:55;5.00;;;4.50;;
1699;SDS011;847;48.058;7.810;2023-06-14T05:03:24;7.73;;;5.20;;
1699;SDS011;847;48.058;7.810;2023-06-14T05:05:51;5.40;;;4.90;;
1699;SDS011;847;48.058;7.810;2023-06-14T05:08:20;12.07;;;5.00;;
1699;SDS011;847;48.058;7.810;2023-06-14T05:10:48;5.53;;;5.00;;
1699;SDS011;847;48.058;7.810;2023-06-14T05:13:14;5.90;;;5.10;;
1699;SDS011;847;48.058;7.810;2023-06-14T05:15:42;6.13;;;5.53;;
1699;SDS011;847;48.058;7.810;2023-06-14T05:18:09;7.20;;;5.70;;
1699;SDS011;847;48.058;7.810;2023-06-14T05:20:36;11.63;;;5.50;;
1699;SDS011;847;48.058;7.810;2023-06-14T05:23:03;6.77;;;6.07;;
1699;SDS011;847;48.058;7.810;2023-06-14T05:25:31;7.83;;;6.13;;
1699;SDS011;847;48.058;7.810;2023-06-14T05:27:58;8.30;;;5.60;;
1699;SDS011;847;48.058;7.810;2023-06-14T05:30:25;5.90;;;5.40;;
1699;SDS011;847;48.058;7.810;2023-06-14T05:32:51;6.43;;;5.60;;
1699;SDS011;847;48.058;7.810;2023-06-14T05:35:20;11.43;;;6.53;;
1699;SDS011;847;48.058;7.810;2023-06-14T05:37:48;9.17;;;6.13;;
1699;SDS011;847;48.058;7.810;2023-06-14T05:40:15;9.00;;;6.90;;
1699;SDS011;847;48.058;7.810;2023-06-14T05:42:44;7.00;;;6.30;;
1699;SDS011;847;48.058;7.810;2023-06-14T05:45:10;7.70;;;6.90;;
1699;SDS011;847;48.058;7.810;2023-06-14T05:47:37;6.50;;;5.90;;
1699;SDS011;847;48.058;7.810;2023-06-14T05:50:04;6.27;;;5.67;;
1699;SDS011;847;48.058;7.810;2023-06-14T05:52:32;7.43;;;6.60;;
1699;SDS011;847;48.058;7.810;2023-06-14T05:54:59;6.50;;;5.90;;
1699;SDS011;847;48.058;7.810;2023-06-14T05:57:26;6.60;;;6.00;;
1699;SDS011;847;48.058;7.810;2023-06-14T05:59:54;9.67;;;6.37;;
1699;SDS011;847;48.058;7.810;2023-06-14T06:02:21;7.23;;;6.50;;
1699;SDS011;847;48.058;7.810;2023-06-14T06:04:47;6.43;;;5.87;;
1699;SDS011;847;48.058;7.810;2023-06-14T06:07:14;9.97;;;6.87;;
1699;SDS011;847;48.058;7.810;2023-06-14T06:09:41;9.17;;;6.50;;
1699;SDS011;847;48.058;7.810;2023-06-14T06:12:08;7.03;;;6.30;;
1699;SDS011;847;48.058;7.810;2023-06-14T06:14:36;9.23;;;6.40;;
1699;SDS011;847;48.058;7.810;2023-06-14T06:17:04;6.03;;;5.50;;
1699;SDS011;847;48.058;7.810;2023-06-14T06:19:31;7.97;;;6.80;;
1699;SDS011;847;48.058;7.810;2023-06-14T06:21:58;7.83;;;6.27;;
1699;SDS011;847;48.058;7.810;2023-06-14T06:24:25;7.77;;;5.90;;
1699;SDS011;847;48.058;7.810;2023-06-14T06:26:51;7.13;;;6.40;;
1699;SDS011;847;48.058;7.810;2023-06-14T06:29:18;8.43;;;6.80;;
1699;SDS011;847;48.058;7.810;2023-06-14T06:31:45;8.77;;;6.10;;
1699;SDS011;847;48.058;7.810;2023-06-14T06:34:13;8.13;;;6.30;;
1699;SDS011;847;48.058;7.810;2023-06-14T06:36:40;9.33;;;6.70;;
1699;SDS011;847;48.058;7.810;2023-06-14T06:39:07;8.07;;;6.87;;
1699;SDS011;847;48.058;7.810;2023-06-14T06:41:35;8.23;;;6.83;;
1699;SDS011;847;48.058;7.810;2023-06-14T06:44:03;7.03;;;6.33;;
1699;SDS011;847;48.058;7.810;2023-06-14T06:46:30;9.20;;;7.40;;
1699;SDS011;847;48.058;7.810;2023-06-14T06:48:57;7.43;;;6.73;;
1699;SDS011;847;48.058;7.810;2023-06-14T06:51:25;6.83;;;6.13;;
1699;SDS011;847;48.058;7.810;2023-06-14T06:53:52;7.00;;;6.30;;
1699;SDS011;847;48.058;7.810;2023-06-14T06:56:19;12.53;;;6.70;;
1699;SDS011;847;48.058;7.810;2023-06-14T06:58:48;7.23;;;6.13;;
1699;SDS011;847;48.058;7.810;2023-06-14T07:01:14;9.53;;;6.60;;
1699;SDS011;847;48.058;7.810;2023-06-14T07:03:42;7.67;;;6.27;;
1699;SDS011;847;48.058;7.810;2023-06-14T07:06:08;7.10;;;6.03;;
1699;SDS011;847;48.058;7.810;2023-06-14T07:08:37;6.63;;;5.93;;
1699;SDS011;847;48.058;7.810;2023-06-14T07:11:04;6.17;;;5.60;;
1699;SDS011;847;48.058;7.810;2023-06-14T07:13:32;9.67;;;6.77;;
1699;SDS011;847;48.058;7.810;2023-06-14T07:15:59;8.30;;;6.20;;
1699;SDS011;847;48.058;7.810;2023-06-14T07:18:26;6.10;;;5.50;;
1699;SDS011;847;48.058;7.810;2023-06-14T07:20:53;7.13;;;5.93;;
1699;SDS011;847;48.058;7.810;2023-06-14T07:23:21;7.03;;;6.00;;
1699;SDS011;847;48.058;7.810;2023-06-14T07:25:49;7.10;;;5.67;;
1699;SDS011;847;48.058;7.810;2023-06-14T07:28:15;6.50;;;5.90;;
1699;SDS011;847;48.058;7.810;2023-06-14T07:30:42;7.37;;;5.77;;
1699;SDS011;847;48.058;7.810;2023-06-14T07:33:09;6.97;;;6.37;;
1699;SDS011;847;48.058;7.810;2023-06-14T07:35:37;6.57;;;5.70;;
1699;SDS011;847;48.058;7.810;2023-06-14T07:38:04;6.13;;;5.50;;
1699;SDS011;847;48.058;7.810;2023-06-14T07:40:30;8.00;;;6.43;;
1699;SDS011;847;48.058;7.810;2023-06-14T07:42:58;6.97;;;6.03;;
1699;SDS011;847;48.058;7.810;2023-06-14T07:45:26;7.00;;;5.70;;
1699;SDS011;847;48.058;7.810;2023-06-14T07:47:53;6.67;;;5.97;;
1699;SDS011;847;48.058;7.810;2023-06-14T07:50:20;6.57;;;5.53;;
1699;SDS011;847;48.058;7.810;2023-06-14T07:52:46;7.00;;;6.30;;
1699;SDS011;847;48.058;7.810;2023-06-14T07:55:14;7.10;;;6.40;;
1699;SDS011;847;48.058;7.810;2023-06-14T07:57:41;8.90;;;5.50;;
1699;SDS011;847;48.058;7.810;2023-06-14T08:00:11;6.67;;;6.07;;
1699;SDS011;847;48.058;7.810;2023-06-14T08:02:40;9.00;;;5.73;;
1699;SDS011;847;48.058;7.810;2023-06-14T08:05:07;6.20;;;5.60;;
1699;SDS011;847;48.058;7.810;2023-06-14T08:07:35;9.27;;;5.97;;
1699;SDS011;847;48.058;7.810;2023-06-14T08:10:02;6.70;;;5.20;;
1699;SDS011;847;48.058;7.810;2023-06-14T08:12:29;6.73;;;5.90;;
1699;SDS011;847;48.058;7.810;2023-06-14T08:14:55;6.90;;;5.60;;
1699;SDS011;847;48.058;7.810;2023-06-14T08:17:23;6.87;;;5.40;;
1699;SDS011;847;48.058;7.810;2023-06-14T08:19:50;6.53;;;5.80;;
1699;SDS011;847;48.058;7.810;2023-06-14T08:22:17;7.93;;;5.63;;
1699;SDS011;847;48.058;7.810;2023-06-14T08:24:44;8.20;;;5.83;;
1699;SDS011;847;48.058;7.810;2023-06-14T08:27:11;5.33;;;4.93;;
1699;SDS011;847;48.058;7.810;2023-06-14T08:29:38;6.23;;;4.83;;
1699;SDS011;847;48.058;7.810;2023-06-14T08:32:06;6.00;;;5.50;;
1699;SDS011;847;48.058;7.810;2023-06-14T08:34:35;6.63;;;5.33;;
1699;SDS011;847;48.058;7.810;2023-06-14T08:37:01;5.67;;;4.80;;
1699;SDS011;847;48.058;7.810;2023-06-14T08:39:28;6.87;;;5.03;;
1699;SDS011;847;48.058;7.810;2023-06-14T08:41:55;6.40;;;4.67;;
1699;SDS011;847;48.058;7.810;2023-06-14T08:44:23;7.10;;;5.60;;
1699;SDS011;847;48.058;7.810;2023-06-14T08:46:50;6.23;;;5.43;;
1699;SDS011;847;48.058;7.810;2023-06-14T08:49:18;10.73;;;5.47;;
1699;SDS011;847;48.058;7.810;2023-06-14T08:51:47;5.70;;;5.00;;
1699;SDS011;847;48.058;7.810;2023-06-14T08:54:20;5.43;;;4.93;;
1699;SDS011;847;48.058;7.810;2023-06-14T08:56:46;6.20;;;5.23;;
1699;SDS011;847;48.058;7.810;2023-06-14T08:59:13;5.73;;;4.40;;
1699;SDS011;847;48.058;7.810;2023-06-14T09:01:41;7.00;;;4.50;;
1699;SDS011;847;48.058;7.810;2023-06-14T09:04:08;5.00;;;4.53;;
1699;SDS011;847;48.058;7.810;2023-06-14T09:06:34;6.93;;;5.50;;
1699;SDS011;847;48.058;7.810;2023-06-14T09:09:03;5.80;;;5.07;;
1699;SDS011;847;48.058;7.810;2023-06-14T09:11:30;4.87;;;4.47;;
1699;SDS011;847;48.058;7.810;2023-06-14T09:13:57;5.50;;;5.00;;
1699;SDS011;847;48.058;7.810;2023-06-14T09:16:24;7.80;;;5.70;;
1699;SDS011;847;48.058;7.810;2023-06-14T09:18:51;8.73;;;4.73;;
1699;SDS011;847;48.058;7.810;2023-06-14T09:21:19;5.63;;;5.03;;
1699;SDS011;847;48.058;7.810;2023-06-14T09:23:47;5.87;;;5.30;;
1699;SDS011;847;48.058;7.810;2023-06-14T09:26:15;6.37;;;5.43;;
1699;SDS011;847;48.058;7.810;2023-06-14T09:28:44;6.10;;;4.70;;
1699;SDS011;847;48.058;7.810;2023-06-14T09:31:12;5.83;;;5.33;;
1699;SDS011;847;48.058;7.810;2023-06-14T09:33:41;8.07;;;5.00;;
1699;SDS011;847;48.058;7.810;2023-06-14T09:36:12;8.53;;;6.17;;
1699;SDS011;847;48.058;7.810;2023-06-14T09:38:42;6.97;;;5.40;;
1699;SDS011;847;48.058;7.810;2023-06-14T09:41:18;5.97;;;5.33;;
1699;SDS011;847;48.058;7.810;2023-06-14T09:43:46;5.97;;;5.37;;
1699;SDS011;847;48.058;7.810;2023-06-14T09:46:13;8.17;;;4.97;;
1699;SDS011;847;48.058;7.810;2023-06-14T09:48:41;5.97;;;5.43;;
1699;SDS011;847;48.058;7.810;2023-06-14T09:51:08;5.90;;;4.70;;
1699;SDS011;847;48.058;7.810;2023-06-14T09:53:36;7.17;;;5.33;;
1699;SDS011;847;48.058;7.810;2023-06-14T09:56:04;5.73;;;5.17;;
1699;SDS011;847;48.058;7.810;2023-06-14T09:58:33;6.23;;;5.20;;
1699;SDS011;847;48.058;7.810;2023-06-14T10:01:05;8.80;;;5.50;;
1699;SDS011;847;48.058;7.810;2023-06-14T10:03:34;6.03;;;4.80;;
1699;SDS011;847;48.058;7.810;2023-06-14T10:06:04;5.60;;;5.00;;
1699;SDS011;847;48.058;7.810;2023-06-14T10:08:33;5.50;;;5.00;;
1699;SDS011;847;48.058;7.810;2023-06-14T10:11:03;5.93;;;5.40;;
1699;SDS011;847;48.058;7.810;2023-06-14T10:13:31;6.10;;;5.60;;
1699;SDS011;847;48.058;7.810;2023-06-14T10:16:04;5.70;;;5.10;;
1699;SDS011;847;48.058;7.810;2023-06-14T10:18:38;6.90;;;5.50;;
1699;SDS011;847;48.058;7.810;2023-06-14T10:21:13;7.17;;;4.90;;
1699;SDS011;847;48.058;7.810;2023-06-14T10:23:45;5.40;;;4.90;;
1699;SDS011;847;48.058;7.810;2023-06-14T10:26:19;6.13;;;5.00;;
1699;SDS011;847;48.058;7.810;2023-06-14T10:28:59;10.60;;;5.13;;
1699;SDS011;847;48.058;7.810;2023-06-14T10:31:39;5.93;;;5.43;;
1699;SDS011;847;48.058;7.810;2023-06-14T10:34:07;7.80;;;5.47;;
1699;SDS011;847;48.058;7.810;2023-06-14T10:36:34;6.80;;;4.80;;
1699;SDS011;847;48.058;7.810;2023-06-14T10:39:04;6.43;;;4.80;;
1699;SDS011;847;48.058;7.810;2023-06-14T10:41:34;5.63;;;5.13;;
1699;SDS011;847;48.058;7.810;2023-06-14T10:47:21;6.87;;;5.10;;
1699;SDS011;847;48.058;7.810;2023-06-14T10:49:53;6.47;;;5.03;;
1699;SDS011;847;48.058;7.810;2023-06-14T10:52:21;8.13;;;5.07;;
1699;SDS011;847;48.058;7.810;2023-06-14T10:54:55;5.53;;;4.90;;
1699;SDS011;847;48.058;7.810;2023-06-14T10:57:26;5.97;;;5.37;;
1699;SDS011;847;48.058;7.810;2023-06-14T10:59:52;10.53;;;5.53;;
1699;SDS011;847;48.058;7.810;2023-06-14T11:02:35;5.77;;;4.63;;
1699;SDS011;847;48.058;7.810;2023-06-14T11:05:25;7.63;;;5.10;;
1699;SDS011;847;48.058;7.810;2023-06-14T11:08:12;7.63;;;5.17;;
1699;SDS011;847;48.058;7.810;2023-06-14T11:10:55;5.70;;;4.73;;
1699;SDS011;847;48.058;7.810;2023-06-14T11:13:25;9.37;;;5.70;;
1699;SDS011;847;48.058;7.810;2023-06-14T11:15:53;6.20;;;5.20;;
1699;SDS011;847;48.058;7.810;2023-06-14T11:18:24;8.07;;;5.60;;
1699;SDS011;847;48.058;7.810;2023-06-14T11:20:52;5.23;;;4.73;;
1699;SDS011;847;48.058;7.810;2023-06-14T11:23:20;5.00;;;4.60;;
1699;SDS011;847;48.058;7.810;2023-06-14T11:25:49;5.80;;;4.77;;
1699;SDS011;847;48.058;7.810;2023-06-14T11:28:17;5.17;;;4.77;;
1699;SDS011;847;48.058;7.810;2023-06-14T11:30:44;8.73;;;5.63;;
1699;SDS011;847;48.058;7.810;2023-06-14T11:33:11;5.73;;;5.23;;
1699;SDS011;847;48.058;7.810;2023-06-14T11:35:44;5.30;;;4.80;;
1699;SDS011;847;48.058;7.810;2023-06-14T11:38:11;8.90;;;6.20;;
1699;SDS011;847;48.058;7.810;2023-06-14T11:40:38;5.53;;;4.80;;
1699;SDS011;847;48.058;7.810;2023-06-14T11:43:05;5.40;;;4.87;;
1699;SDS011;847;48.058;7.810;2023-06-14T11:45:32;5.90;;;4.93;;
1699;SDS011;847;48.058;7.810;2023-06-14T11:47:58;5.50;;;5.00;;
1699;SDS011;847;48.058;7.810;2023-06-14T11:50:25;6.90;;;5.13;;
1699;SDS011;847;48.058;7.810;2023-06-14T11:52:55;5.93;;;4.87;;
1699;SDS011;847;48.058;7.810;2023-06-14T11:55:22;6.00;;;5.40;;
1699;SDS011;847;48.058;7.810;2023-06-14T11:57:50;5.33;;;4.93;;
1699;SDS011;847;48.058;7.810;2023-06-14T12:00:17;6.90;;;5.40;;
1699;SDS011;847;48.058;7.810;2023-06-14T12:02:51;5.47;;;5.00;;
1699;SDS011;847;48.058;7.810;2023-06-14T12:05:20;7.63;;;5.00;;
1699;SDS011;847;48.058;7.810;2023-06-14T12:07:47;6.10;;;4.90;;
1699;SDS011;847;48.058;7.810;2023-06-14T12:10:16;6.90;;;5.70;;
1699;SDS011;847;48.058;7.810;2023-06-14T12:12:43;6.90;;;5.20;;
1699;SDS011;847;48.058;7.810;2023-06-14T12:15:10;6.20;;;5.40;;
1699;SDS011;847;48.058;7.810;2023-06-14T12:17:38;7.40;;;5.33;;
1699;SDS011;847;48.058;7.810;2023-06-14T12:20:07;6.40;;;5.07;;
1699;SDS011;847;48.058;7.810;2023-06-14T12:22:46;5.33;;;4.40;;
1699;SDS011;847;48.058;7.810;2023-06-14T12:25:30;5.50;;;5.00;;
1699;SDS011;847;48.058;7.810;2023-06-14T12:27:58;5.50;;;5.00;;
1699;SDS011;847;48.058;7.810;2023-06-14T12:30:29;5.87;;;5.30;;
1699;SDS011;847;48.058;7.810;2023-06-14T12:32:56;7.07;;;5.57;;
1699;SDS011;847;48.058;7.810;2023-06-14T12:35:23;5.33;;;4.30;;
1699;SDS011;847;48.058;7.810;2023-06-14T12:37:49;4.87;;;4.40;;
1699;SDS011;847;48.058;7.810;2023-06-14T12:40:16;6.17;;;5.00;;
1699;SDS011;847;48.058;7.810;2023-06-14T12:42:45;7.67;;;4.83;;
1699;SDS011;847;48.058;7.810;2023-06-14T12:45:12;5.67;;;5.10;;
1699;SDS011;847;48.058;7.810;2023-06-14T12:47:39;5.63;;;4.67;;
1699;SDS011;847;48.058;7.810;2023-06-14T12:50:06;5.50;;;5.00;;
1699;SDS011;847;48.058;7.810;2023-06-14T12:52:33;6.10;;;4.40;;
1699;SDS011;847;48.058;7.810;2023-06-14T12:55:01;8.93;;;5.60;;
1699;SDS011;847;48.058;7.810;2023-06-14T12:57:29;5.50;;;4.97;;
1699;SDS011;847;48.058;7.810;2023-06-14T12:59:57;6.20;;;4.90;;
1699;SDS011;847;48.058;7.810;2023-06-14T13:02:25;6.43;;;5.80;;
1699;SDS011;847;48.058;7.810;2023-06-14T13:04:52;12.20;;;5.47;;
1699;SDS011;847;48.058;7.810;2023-06-14T13:07:19;5.77;;;4.80;;
1699;SDS011;847;48.058;7.810;2023-06-14T13:09:45;5.00;;;4.50;;
1699;SDS011;847;48.058;7.810;2023-06-14T13:12:12;6.10;;;4.70;;
1699;SDS011;847;48.058;7.810;2023-06-14T13:14:39;5.43;;;4.87;;
1699;SDS011;847;48.058;7.810;2023-06-14T13:17:08;5.63;;;4.37;;
1699;SDS011;847;48.058;7.810;2023-06-14T13:19:35;5.63;;;5.23;;
1699;SDS011;847;48.058;7.810;2023-06-14T13:22:02;5.67;;;4.97;;
1699;SDS011;847;48.058;7.810;2023-06-14T13:24:30;8.00;;;5.93;;
1699;SDS011;847;48.058;7.810;2023-06-14T13:26:57;9.20;;;5.17;;
1699;SDS011;847;48.058;7.810;2023-06-14T13:29:24;6.67;;;5.23;;
1699;SDS011;847;48.058;7.810;2023-06-14T13:31:52;5.27;;;4.47;;
1699;SDS011;847;48.058;7.810;2023-06-14T13:34:21;9.80;;;4.93;;
1699;SDS011;847;48.058;7.810;2023-06-14T13:36:48;5.50;;;5.00;;
1699;SDS011;847;48.058;7.810;2023-06-14T13:39:16;4.90;;;4.50;;
1699;SDS011;847;48.058;7.810;2023-06-14T13:41:43;6.20;;;5.60;;
1699;SDS011;847;48.058;7.810;2023-06-14T13:44:09;6.80;;;4.90;;
1699;SDS011;847;48.058;7.810;2023-06-14T13:46:39;8.97;;;4.80;;
1699;SDS011;847;48.058;7.810;2023-06-14T13:49:07;5.53;;;4.47;;
1699;SDS011;847;48.058;7.810;2023-06-14T13:51:36;5.60;;;4.50;;
1699;SDS011;847;48.058;7.810;2023-06-14T13:54:03;5.33;;;4.77;;
1699;SDS011;847;48.058;7.810;2023-06-14T13:56:30;5.70;;;4.73;;
1699;SDS011;847;48.058;7.810;2023-06-14T13:58:57;7.17;;;4.87;;
1699;SDS011;847;48.058;7.810;2023-06-14T14:01:24;7.43;;;5.30;;
1699;SDS011;847;48.058;7.810;2023-06-14T14:03:51;5.87;;;5.20;;
1699;SDS011;847;48.058;7.810;2023-06-14T14:06:18;5.80;;;4.83;;
1699;SDS011;847;48.058;7.810;2023-06-14T14:08:46;6.10;;;4.53;;
1699;SDS011;847;48.058;7.810;2023-06-14T14:11:13;4.80;;;4.40;;
1699;SDS011;847;48.058;7.810;2023-06-14T14:13:41;7.10;;;4.73;;
1699;SDS011;847;48.058;7.810;2023-06-14T14:16:08;5.17;;;4.40;;
1699;SDS011;847;48.058;7.810;2023-06-14T14:18:35;5.67;;;4.10;;
1699;SDS011;847;48.058;7.810;2023-06-14T14:21:02;5.03;;;4.60;;
1699;SDS011;847;48.058;7.810;2023-06-14T14:23:29;5.67;;;4.40;;
1699;SDS011;847;48.058;7.810;2023-06-14T14:25:57;5.10;;;4.70;;
1699;SDS011;847;48.058;7.810;2023-06-14T14:28:25;6.37;;;5.00;;
1699;SDS011;847;48.058;7.810;2023-06-14T14:30:52;6.90;;;4.60;;
1699;SDS011;847;48.058;7.810;2023-06-14T14:33:20;6.27;;;4.50;;
1699;SDS011;847;48.058;7.810;2023-06-14T14:35:46;6.53;;;4.50;;
1699;SDS011;847;48.058;7.810;2023-06-14T14:38:13;6.57;;;4.87;;
1699;SDS011;847;48.058;7.810;2023-06-14T14:40:40;4.87;;;4.47;;
1699;SDS011;847;48.058;7.810;2023-06-14T14:43:10;4.90;;;4.37;;
1699;SDS011;847;48.058;7.810;2023-06-14T14:45:37;5.67;;;4.43;;
1699;SDS011;847;48.058;7.810;2023-06-14T14:48:04;6.70;;;5.20;;
1699;SDS011;847;48.058;7.810;2023-06-14T14:50:31;8.93;;;4.77;;
1699;SDS011;847;48.058;7.810;2023-06-14T14:52:58;5.17;;;4.03;;
1699;SDS011;847;48.058;7.810;2023-06-14T14:55:25;5.60;;;4.60;;
1699;SDS011;847;48.058;7.810;2023-06-14T14:57:51;11.60;;;5.40;;
1699;SDS011;847;48.058;7.810;2023-06-14T15:00:20;4.80;;;4.40;;
1699;SDS011;847;48.058;7.810;2023-06-14T15:02:47;6.73;;;5.00;;
1699;SDS011;847;48.058;7.810;2023-06-14T15:05:13;4.90;;;4.50;;
1699;SDS011;847;48.058;7.810;2023-06-14T15:07:40;6.50;;;4.50;;
1699;SDS011;847;48.058;7.810;2023-06-14T15:10:07;5.50;;;5.00;;
1699;SDS011;847;48.058;7.810;2023-06-14T15:12:34;5.90;;;4.53;;
1699;SDS011;847;48.058;7.810;2023-06-14T15:15:01;4.87;;;4.47;;
1699;SDS011;847;48.058;7.810;2023-06-14T15:17:30;5.40;;;4.90;;
1699;SDS011;847;48.058;7.810;2023-06-14T15:19:57;7.27;;;5.07;;
1699;SDS011;847;48.058;7.810;2023-06-14T15:22:23;4.93;;;4.47;;
1699;SDS011;847;48.058;7.810;2023-06-14T15:24:50;5.77;;;5.10;;
1699;SDS011;847;48.058;7.810;2023-06-14T15:27:17;6.83;;;5.90;;
1699;SDS011;847;48.058;7.810;2023-06-14T15:29:44;6.03;;;4.77;;
1699;SDS011;847;48.058;7.810;2023-06-14T15:32:10;6.37;;;5.13;;
1699;SDS011;847;48.058;7.810;2023-06-14T15:34:41;5.43;;;4.70;;
1699;SDS011;847;48.058;7.810;2023-06-14T15:37:08;12.60;;;5.17;;
1699;SDS011;847;48.058;7.810;2023-06-14T15:39:34;5.20;;;4.80;;